Time;durP1;ratioP1;P1;durP2;ratioP2;P2;SDS_P1;SDS_P2;PMS_P1;PMS_P2;Temp;Humidity;BMP_temperature;BMP_pressure;BME280_temperature;BME280_humidity;BME280_pressure;Samples;Min_cycle;Max_cycle;Signal;HPM_P1;HPM_P2
2020/12/12 00:00:37;;;;;;;12.65;9.15;;;;;;;;;;5119622;27;20293;-74
2020/12/12 00:03:04;;;;;;;11.30;8.10;;;;;;;;;;5121689;27;20195;-75
2020/12/12 00:05:31;;;;;;;11.55;8.57;;;;;;;;;;5135120;27;20306;-76
2020/12/12 00:07:58;;;;;;;13.32;9.93;;;;;;;;;;5135881;27;20198;-73
2020/12/12 00:10:26;;;;;;;11.73;8.60;;;;;;;;;;5136029;27;20199;-74
2020/12/12 00:12:53;;;;;;;12.30;8.95;;;;;;;;;;5127274;27;20193;-75
2020/12/12 00:15:20;;;;;;;10.40;8.30;;;;;;;;;;5117487;28;20252;-75
2020/12/12 00:17:47;;;;;;;10.80;7.80;;;;;;;;;;5117538;28;20276;-74
2020/12/12 00:20:14;;;;;;;9.82;8.05;;;;;;;;;;5117462;28;20203;-73
2020/12/12 00:22:41;;;;;;;11.00;9.00;;;;;;;;;;5118704;27;20278;-74
2020/12/12 00:25:09;;;;;;;12.45;9.07;;;;;;;;;;5120920;27;20234;-75
2020/12/12 00:27:36;;;;;;;9.73;8.55;;;;;;;;;;5133331;27;20257;-74
2020/12/12 00:30:03;;;;;;;12.02;8.40;;;;;;;;;;5135792;27;20571;-75
2020/12/12 00:32:30;;;;;;;12.30;9.20;;;;;;;;;;5135577;27;20202;-75
2020/12/12 00:34:57;;;;;;;13.45;9.63;;;;;;;;;;5128666;27;20227;-76
2020/12/12 00:37:24;;;;;;;9.43;8.18;;;;;;;;;;5117060;28;20193;-74
2020/12/12 00:39:51;;;;;;;13.77;9.07;;;;;;;;;;5116953;28;20225;-74
2020/12/12 00:42:18;;;;;;;11.35;9.13;;;;;;;;;;5116937;28;20238;-74
2020/12/12 00:44:44;;;;;;;10.80;8.27;;;;;;;;;;5118118;27;20569;-74
2020/12/12 00:47:11;;;;;;;11.73;8.50;;;;;;;;;;5120910;27;20561;-74
2020/12/12 00:49:39;;;;;;;11.48;8.60;;;;;;;;;;5115314;27;20545;-73
2020/12/12 00:52:06;;;;;;;10.75;8.15;;;;;;;;;;5113817;28;20291;-74
2020/12/12 00:54:34;;;;;;;12.70;8.80;;;;;;;;;;5114809;28;20312;-74
2020/12/12 00:57:01;;;;;;;11.05;8.77;;;;;;;;;;5114776;28;20220;-75
2020/12/12 00:59:28;;;;;;;12.70;9.10;;;;;;;;;;5116795;28;20195;-74
2020/12/12 01:01:55;;;;;;;12.73;9.57;;;;;;;;;;5116686;28;20550;-75
2020/12/12 01:04:22;;;;;;;10.70;8.77;;;;;;;;;;5116433;28;20193;-74
2020/12/12 01:06:49;;;;;;;10.90;8.30;;;;;;;;;;5116959;27;20212;-73
2020/12/12 01:09:16;;;;;;;12.30;9.18;;;;;;;;;;5120341;27;20189;-75
2020/12/12 01:11:43;;;;;;;13.38;9.13;;;;;;;;;;5114283;27;20193;-74
2020/12/12 01:14:10;;;;;;;11.32;8.77;;;;;;;;;;5114066;28;20204;-75
2020/12/12 01:16:37;;;;;;;9.82;7.55;;;;;;;;;;5114202;28;20219;-74
2020/12/12 01:19:03;;;;;;;11.88;8.40;;;;;;;;;;5114069;28;20295;-74
2020/12/12 01:21:30;;;;;;;12.13;9.13;;;;;;;;;;5116109;28;20189;-74
2020/12/12 01:23:58;;;;;;;10.93;7.95;;;;;;;;;;5116014;28;20304;-73
2020/12/12 01:26:25;;;;;;;11.98;9.52;;;;;;;;;;5116189;28;20227;-74
2020/12/12 01:28:51;;;;;;;10.20;8.43;;;;;;;;;;5116620;27;20288;-74
2020/12/12 01:31:18;;;;;;;10.90;8.00;;;;;;;;;;5120061;27;20571;-75
2020/12/12 01:33:45;;;;;;;11.20;8.55;;;;;;;;;;5128086;27;20199;-74
2020/12/12 01:36:12;;;;;;;10.65;8.02;;;;;;;;;;5134117;27;20302;-74
2020/12/12 01:38:39;;;;;;;13.07;9.30;;;;;;;;;;5134635;27;20197;-74
2020/12/12 01:41:06;;;;;;;11.77;9.35;;;;;;;;;;5132794;27;20199;-74
2020/12/12 01:43:33;;;;;;;11.50;8.43;;;;;;;;;;5115952;28;20214;-73
2020/12/12 01:46:00;;;;;;;10.90;8.52;;;;;;;;;;5115733;28;20327;-73
2020/12/12 01:48:27;;;;;;;11.77;8.95;;;;;;;;;;5115636;28;20546;-75
2020/12/12 01:50:54;;;;;;;10.68;8.15;;;;;;;;;;5115498;28;20204;-74
2020/12/12 01:53:25;;;;;;;12.20;9.00;;;;;;;;;;5119588;27;20191;-75
2020/12/12 01:55:52;;;;;;;12.05;8.32;;;;;;;;;;5126530;27;20226;-73
2020/12/12 01:58:20;;;;;;;10.40;8.70;;;;;;;;;;5133926;27;20280;-72
2020/12/12 02:00:47;;;;;;;13.02;10.02;;;;;;;;;;5133846;27;20192;-75
2020/12/12 02:03:14;;;;;;;12.05;8.82;;;;;;;;;;5132776;27;20641;-75
2020/12/12 02:05:43;;;;;;;11.20;9.25;;;;;;;;;;5094495;28;20252;-73
2020/12/12 02:08:11;;;;;;;12.25;9.55;;;;;;;;;;5095148;28;20650;-74
2020/12/12 02:10:39;;;;;;;10.77;8.43;;;;;;;;;;5094985;28;20202;-75
2020/12/12 02:13:06;;;;;;;12.45;9.23;;;;;;;;;;5094930;28;20223;-74
2020/12/12 02:15:34;;;;;;;12.13;9.40;;;;;;;;;;5116340;27;20223;-73
2020/12/12 02:18:01;;;;;;;11.60;8.90;;;;;;;;;;5124188;27;20195;-74
2020/12/12 02:20:27;;;;;;;12.35;9.70;;;;;;;;;;5133522;27;20193;-74
2020/12/12 02:22:55;;;;;;;11.70;8.88;;;;;;;;;;5133271;27;20346;-75
2020/12/12 02:25:22;;;;;;;12.25;9.60;;;;;;;;;;5133528;27;20225;-75
2020/12/12 02:27:51;;;;;;;10.93;9.25;;;;;;;;;;5115378;27;20197;-73
2020/12/12 02:30:19;;;;;;;13.68;9.50;;;;;;;;;;5114773;28;20196;-74
2020/12/12 02:32:46;;;;;;;10.52;8.75;;;;;;;;;;5114780;28;20203;-75
2020/12/12 02:35:13;;;;;;;10.98;9.63;;;;;;;;;;5114944;28;20220;-75
2020/12/12 02:37:40;;;;;;;11.10;8.85;;;;;;;;;;5118320;27;20313;-74
2020/12/12 02:40:07;;;;;;;12.43;9.52;;;;;;;;;;5115772;27;20189;-73
2020/12/12 02:42:34;;;;;;;11.40;8.75;;;;;;;;;;5112438;28;20193;-74
2020/12/12 02:45:01;;;;;;;12.35;9.20;;;;;;;;;;5112041;28;20223;-75
2020/12/12 02:47:34;;;;;;;11.32;9.15;;;;;;;;;;5112819;28;20197;-74
2020/12/12 02:50:04;;;;;;;10.68;8.77;;;;;;;;;;5113699;28;20227;-74
2020/12/12 02:52:31;;;;;;;12.38;9.52;;;;;;;;;;5114496;28;20288;-75
2020/12/12 02:54:57;;;;;;;12.00;8.85;;;;;;;;;;5114364;28;20224;-73
2020/12/12 02:57:25;;;;;;;11.75;9.73;;;;;;;;;;5114332;28;20280;-74
2020/12/12 02:59:52;;;;;;;13.52;9.93;;;;;;;;;;5117560;27;20195;-75
2020/12/12 03:02:18;;;;;;;14.07;9.20;;;;;;;;;;5122994;27;20189;-75
2020/12/12 03:04:45;;;;;;;14.48;10.25;;;;;;;;;;5132523;27;20226;-75
2020/12/12 03:07:12;;;;;;;15.15;11.05;;;;;;;;;;5132636;27;20698;-74
2020/12/12 03:09:39;;;;;;;12.48;10.00;;;;;;;;;;5132893;27;20196;-74
2020/12/12 03:12:06;;;;;;;12.55;9.38;;;;;;;;;;5117079;27;20207;-74
2020/12/12 03:14:33;;;;;;;12.18;10.05;;;;;;;;;;5113955;28;20219;-74
2020/12/12 03:17:00;;;;;;;14.50;10.23;;;;;;;;;;5114268;28;20203;-75
2020/12/12 03:19:27;;;;;;;12.50;9.23;;;;;;;;;;5114267;28;20203;-74
2020/12/12 03:21:54;;;;;;;13.18;10.10;;;;;;;;;;5117188;27;20195;-74
2020/12/12 03:24:20;;;;;;;15.82;9.85;;;;;;;;;;5115534;28;20221;-72
2020/12/12 03:26:50;;;;;;;15.95;10.85;;;;;;;;;;5111080;28;20208;-74
2020/12/12 03:29:17;;;;;;;14.52;10.82;;;;;;;;;;5111552;28;20200;-74
2020/12/12 03:31:44;;;;;;;13.98;10.60;;;;;;;;;;5111799;28;20196;-76
2020/12/12 03:34:11;;;;;;;16.55;10.27;;;;;;;;;;5112210;28;20210;-74
2020/12/12 03:36:38;;;;;;;16.25;10.68;;;;;;;;;;5117433;28;20181;-74
2020/12/12 03:39:05;;;;;;;16.13;11.02;;;;;;;;;;5114744;28;20672;-74
2020/12/12 03:41:31;;;;;;;14.65;11.95;;;;;;;;;;5111581;28;20198;-73
2020/12/12 03:43:58;;;;;;;12.98;10.00;;;;;;;;;;5111929;28;20224;-74
2020/12/12 03:46:25;;;;;;;13.45;10.73;;;;;;;;;;5111875;28;20230;-75
2020/12/12 03:48:53;;;;;;;15.68;10.85;;;;;;;;;;5113034;28;20197;-74
2020/12/12 03:51:20;;;;;;;13.90;10.73;;;;;;;;;;5113852;28;20602;-74
2020/12/12 03:53:47;;;;;;;11.82;9.55;;;;;;;;;;5113813;28;20397;-73
2020/12/12 03:56:14;;;;;;;15.98;11.13;;;;;;;;;;5114013;28;20216;-74
2020/12/12 03:58:41;;;;;;;14.45;10.82;;;;;;;;;;5120366;28;20192;-75
2020/12/12 04:01:08;;;;;;;12.05;9.95;;;;;;;;;;5122056;27;20271;-73
2020/12/12 04:03:35;;;;;;;17.60;12.05;;;;;;;;;;5132009;27;20343;-74
2020/12/12 04:06:03;;;;;;;18.23;11.88;;;;;;;;;;5133412;27;20215;-76
2020/12/12 04:08:29;;;;;;;16.23;11.05;;;;;;;;;;5133063;27;20252;-74
2020/12/12 04:10:56;;;;;;;15.88;10.75;;;;;;;;;;5117674;27;20617;-75
2020/12/12 04:13:23;;;;;;;15.98;11.27;;;;;;;;;;5114304;28;20665;-75
2020/12/12 04:15:50;;;;;;;15.57;11.65;;;;;;;;;;5113686;28;20235;-73
2020/12/12 04:18:17;;;;;;;15.35;11.85;;;;;;;;;;5114072;28;20203;-76
2020/12/12 04:20:44;;;;;;;19.13;12.05;;;;;;;;;;5116565;27;20199;-76
2020/12/12 04:23:11;;;;;;;17.70;12.23;;;;;;;;;;5116744;28;20219;-75
2020/12/12 04:25:38;;;;;;;18.55;12.52;;;;;;;;;;5110878;28;20324;-76
2020/12/12 04:28:05;;;;;;;18.35;12.88;;;;;;;;;;5114819;28;20708;-75
2020/12/12 04:30:32;;;;;;;19.90;14.38;;;;;;;;;;5114273;28;20197;-74
2020/12/12 04:32:59;;;;;;;19.10;13.00;;;;;;;;;;5115725;28;20666;-75
2020/12/12 04:35:25;;;;;;;17.42;12.48;;;;;;;;;;5117179;28;20212;-75
2020/12/12 04:37:52;;;;;;;17.13;12.20;;;;;;;;;;5117392;28;20199;-76
2020/12/12 04:40:20;;;;;;;19.00;12.05;;;;;;;;;;5117207;28;20203;-74
2020/12/12 04:42:48;;;;;;;19.02;13.50;;;;;;;;;;5119528;27;20184;-74
2020/12/12 04:45:20;;;;;;;18.05;11.73;;;;;;;;;;5122794;27;20205;-75
2020/12/12 04:47:48;;;;;;;18.17;13.52;;;;;;;;;;5134565;27;20184;-74
2020/12/12 04:50:15;;;;;;;19.92;12.85;;;;;;;;;;5135104;27;20642;-75
2020/12/12 04:52:43;;;;;;;18.65;13.48;;;;;;;;;;5135536;27;20198;-74
2020/12/12 04:55:10;;;;;;;18.83;12.68;;;;;;;;;;5121729;27;20228;-73
2020/12/12 04:57:39;;;;;;;16.92;11.35;;;;;;;;;;5115714;28;20198;-74
2020/12/12 05:00:07;;;;;;;18.25;12.40;;;;;;;;;;5115461;28;20228;-75
2020/12/12 05:02:34;;;;;;;22.58;14.40;;;;;;;;;;5116575;28;20197;-75
2020/12/12 05:05:01;;;;;;;19.55;14.45;;;;;;;;;;5118812;27;20209;-74
2020/12/12 05:07:28;;;;;;;18.27;13.15;;;;;;;;;;5120099;27;20307;-75
2020/12/12 05:09:55;;;;;;;18.63;14.38;;;;;;;;;;5113846;28;20214;-73
2020/12/12 05:12:22;;;;;;;20.60;13.82;;;;;;;;;;5113125;28;20199;-74
2020/12/12 05:14:51;;;;;;;20.23;13.70;;;;;;;;;;5114462;28;20220;-75
2020/12/12 05:17:18;;;;;;;16.83;11.88;;;;;;;;;;5114660;28;20207;-74
2020/12/12 05:19:47;;;;;;;19.85;12.90;;;;;;;;;;5116465;28;20189;-74
2020/12/12 05:22:15;;;;;;;20.25;13.75;;;;;;;;;;5116164;28;20193;-73
2020/12/12 05:24:42;;;;;;;20.75;12.98;;;;;;;;;;5114783;28;20257;-74
2020/12/12 05:27:09;;;;;;;17.50;11.98;;;;;;;;;;5118030;27;20221;-74
2020/12/12 05:29:36;;;;;;;19.75;13.00;;;;;;;;;;5119741;27;20198;-75
2020/12/12 05:32:04;;;;;;;19.20;13.98;;;;;;;;;;5113341;28;20423;-74
2020/12/12 05:34:31;;;;;;;17.15;12.05;;;;;;;;;;5113872;28;20219;-74
2020/12/12 05:36:58;;;;;;;17.88;12.50;;;;;;;;;;5112522;28;20207;-74
2020/12/12 05:39:25;;;;;;;17.45;12.48;;;;;;;;;;5112927;28;20279;-74
2020/12/12 05:41:52;;;;;;;17.33;11.25;;;;;;;;;;5115918;28;20193;-74
2020/12/12 05:44:20;;;;;;;19.20;12.85;;;;;;;;;;5115637;28;20528;-73
2020/12/12 05:46:47;;;;;;;19.48;12.70;;;;;;;;;;5115863;28;20269;-75
2020/12/12 05:49:15;;;;;;;17.77;12.85;;;;;;;;;;5117450;27;20192;-75
2020/12/12 05:51:42;;;;;;;19.88;13.50;;;;;;;;;;5119336;27;20254;-74
2020/12/12 05:54:09;;;;;;;19.55;13.98;;;;;;;;;;5132980;27;20191;-77
2020/12/12 05:56:36;;;;;;;22.83;13.75;;;;;;;;;;5133797;27;20199;-75
2020/12/12 05:59:03;;;;;;;16.35;11.85;;;;;;;;;;5132866;27;20657;-73
2020/12/12 06:01:31;;;;;;;21.20;12.90;;;;;;;;;;5125923;27;20207;-74
2020/12/12 06:04:02;;;;;;;18.42;12.00;;;;;;;;;;5115551;28;20199;-74
2020/12/12 06:06:30;;;;;;;15.40;11.43;;;;;;;;;;5115192;28;20224;-74
2020/12/12 06:09:02;;;;;;;18.58;13.23;;;;;;;;;;5115435;28;20237;-76
2020/12/12 06:11:29;;;;;;;18.75;12.73;;;;;;;;;;5115986;27;20196;-75
2020/12/12 06:13:59;;;;;;;16.33;12.25;;;;;;;;;;5119398;27;20189;-75
2020/12/12 06:16:27;;;;;;;16.52;12.43;;;;;;;;;;5132987;27;20208;-74
2020/12/12 06:19:09;;;;;;;18.70;13.57;;;;;;;;;;5133252;27;20234;-75
2020/12/12 06:21:37;;;;;;;15.98;12.48;;;;;;;;;;5132995;27;20203;-77
2020/12/12 06:24:05;;;;;;;18.40;12.45;;;;;;;;;;5122191;27;20234;-75
2020/12/12 06:26:37;;;;;;;18.45;13.18;;;;;;;;;;5118770;27;20218;-74
2020/12/12 06:29:04;;;;;;;17.65;12.02;;;;;;;;;;5132854;27;20194;-75
2020/12/12 06:31:35;;;;;;;15.73;11.85;;;;;;;;;;5133083;27;20203;-75
2020/12/12 06:34:01;;;;;;;16.27;11.63;;;;;;;;;;5133281;27;20218;-74
2020/12/12 06:36:29;;;;;;;17.70;12.38;;;;;;;;;;5122837;27;20217;-75
2020/12/12 06:39:11;;;;;;;16.20;11.20;;;;;;;;;;5114914;28;20189;-74
2020/12/12 06:41:38;;;;;;;17.75;13.10;;;;;;;;;;5114523;28;20200;-77
2020/12/12 06:44:05;;;;;;;16.08;11.40;;;;;;;;;;5116841;27;20198;-75
2020/12/12 06:46:47;;;;;;;17.05;12.23;;;;;;;;;;5120296;27;20318;-76
2020/12/12 06:49:13;;;;;;;15.15;11.05;;;;;;;;;;5130957;27;20772;-76
2020/12/12 06:51:40;;;;;;;17.05;11.73;;;;;;;;;;5132842;27;20192;-76
2020/12/12 06:54:08;;;;;;;16.08;12.07;;;;;;;;;;5133109;27;20300;-76
2020/12/12 06:56:35;;;;;;;17.88;12.73;;;;;;;;;;5119531;27;20232;-76
2020/12/12 06:59:16;;;;;;;17.52;11.75;;;;;;;;;;5114263;28;20196;-75
2020/12/12 07:01:51;;;;;;;16.08;11.95;;;;;;;;;;5114183;28;20646;-74
2020/12/12 07:04:23;;;;;;;16.77;12.70;;;;;;;;;;5114715;28;20192;-74
2020/12/12 07:06:58;;;;;;;16.70;12.02;;;;;;;;;;5117765;27;20218;-74
2020/12/12 07:09:26;;;;;;;18.75;12.32;;;;;;;;;;5113840;27;20275;-76
2020/12/12 07:11:54;;;;;;;17.50;12.15;;;;;;;;;;5111956;28;20199;-74
2020/12/12 07:14:20;;;;;;;17.80;13.32;;;;;;;;;;5111823;28;20211;-75
2020/12/12 07:16:48;;;;;;;16.15;11.85;;;;;;;;;;5112217;28;20205;-76
2020/12/12 07:19:18;;;;;;;19.00;12.82;;;;;;;;;;5113421;28;20207;-75
2020/12/12 07:21:45;;;;;;;19.80;15.57;;;;;;;;;;5112958;28;20515;-85
2020/12/12 07:24:11;;;;;;;17.48;13.63;;;;;;;;;;5113804;28;20217;-86
2020/12/12 07:26:38;;;;;;;18.42;13.85;;;;;;;;;;5114159;28;20226;-84
2020/12/12 07:29:05;;;;;;;18.80;12.85;;;;;;;;;;5117853;27;20188;-81
2020/12/12 07:31:33;;;;;;;17.50;12.25;;;;;;;;;;5124572;27;20196;-84
2020/12/12 07:34:02;;;;;;;18.63;13.40;;;;;;;;;;5132449;27;20546;-76
2020/12/12 07:36:29;;;;;;;19.50;13.63;;;;;;;;;;5130891;28;20226;-76
2020/12/12 07:38:56;;;;;;;18.98;13.05;;;;;;;;;;5132301;27;20290;-79
2020/12/12 07:41:23;;;;;;;18.23;12.88;;;;;;;;;;5113819;27;20220;-78
2020/12/12 07:43:51;;;;;;;17.65;11.77;;;;;;;;;;5114116;28;20270;-79
2020/12/12 07:46:18;;;;;;;16.63;12.82;;;;;;;;;;5113812;28;20217;-81
2020/12/12 07:48:45;;;;;;;16.52;12.07;;;;;;;;;;5114082;28;20679;-79
2020/12/12 07:51:13;;;;;;;19.85;13.85;;;;;;;;;;5117502;28;20189;-81
2020/12/12 07:53:40;;;;;;;18.77;13.13;;;;;;;;;;5114102;28;20212;-81
2020/12/12 07:56:08;;;;;;;19.55;12.05;;;;;;;;;;5111710;28;20213;-76
2020/12/12 07:58:37;;;;;;;16.30;12.27;;;;;;;;;;5111525;28;20194;-81
2020/12/12 08:01:05;;;;;;;17.48;12.45;;;;;;;;;;5113920;28;20616;-83
2020/12/12 08:03:32;;;;;;;17.75;12.15;;;;;;;;;;5096438;28;20593;-79
2020/12/12 08:06:07;;;;;;;20.10;13.77;;;;;;;;;;5095992;28;20225;-79
2020/12/12 08:08:34;;;;;;;18.35;12.90;;;;;;;;;;5096354;28;20203;-81
2020/12/12 08:11:01;;;;;;;19.70;14.20;;;;;;;;;;5098940;27;20225;-82
2020/12/12 08:13:29;;;;;;;20.20;13.35;;;;;;;;;;5121590;27;20199;-79
2020/12/12 08:16:05;;;;;;;17.30;12.30;;;;;;;;;;5129746;27;20234;-79
2020/12/12 08:18:32;;;;;;;16.20;12.38;;;;;;;;;;5134715;27;20244;-80
2020/12/12 08:21:09;;;;;;;18.50;13.00;;;;;;;;;;5135974;27;20202;-79
2020/12/12 08:23:38;;;;;;;18.38;12.70;;;;;;;;;;5131717;27;20213;-79
2020/12/12 08:26:05;;;;;;;20.95;12.82;;;;;;;;;;5117576;28;20691;-81
2020/12/12 08:28:32;;;;;;;19.23;13.45;;;;;;;;;;5117418;28;20295;-82
2020/12/12 08:31:09;;;;;;;17.92;13.20;;;;;;;;;;5117218;28;20236;-80
2020/12/12 08:33:36;;;;;;;21.63;14.25;;;;;;;;;;5118468;27;20199;-79
2020/12/12 08:36:10;;;;;;;21.83;14.40;;;;;;;;;;5121304;27;20287;-82
2020/12/12 08:38:38;;;;;;;18.73;12.60;;;;;;;;;;5133322;27;20192;-79
2020/12/12 08:41:11;;;;;;;19.65;13.43;;;;;;;;;;5135169;27;20214;-79
2020/12/12 08:43:38;;;;;;;18.20;12.85;;;;;;;;;;5135758;27;20203;-79
2020/12/12 08:46:05;;;;;;;17.10;11.82;;;;;;;;;;5126799;27;20232;-81
2020/12/12 08:48:32;;;;;;;17.13;13.02;;;;;;;;;;5117106;28;20203;-81
2020/12/12 08:51:00;;;;;;;18.65;13.52;;;;;;;;;;5117129;28;20216;-81
2020/12/12 08:53:31;;;;;;;17.35;11.40;;;;;;;;;;5116935;28;20192;-81
2020/12/12 08:56:00;;;;;;;18.75;12.82;;;;;;;;;;5118193;27;20309;-80
2020/12/12 08:58:41;;;;;;;17.75;11.95;;;;;;;;;;5120900;27;20193;-81
2020/12/12 09:01:10;;;;;;;18.13;12.10;;;;;;;;;;5092482;28;20224;-80
2020/12/12 09:03:36;;;;;;;16.50;12.75;;;;;;;;;;5093927;28;20200;-77
2020/12/12 09:06:06;;;;;;;15.88;11.60;;;;;;;;;;5094095;28;20213;-80
2020/12/12 09:08:33;;;;;;;17.48;13.00;;;;;;;;;;5094611;28;20296;-81
2020/12/12 09:11:11;;;;;;;16.17;11.43;;;;;;;;;;5096251;28;20197;-79
2020/12/12 09:13:38;;;;;;;20.20;13.02;;;;;;;;;;5095629;28;20189;-81
2020/12/12 09:16:04;;;;;;;17.70;12.70;;;;;;;;;;5095970;28;20245;-80
2020/12/12 09:18:33;;;;;;;17.67;12.77;;;;;;;;;;5111283;27;20198;-83
2020/12/12 09:21:00;;;;;;;17.83;12.45;;;;;;;;;;5119529;27;20193;-80
2020/12/12 09:23:27;;;;;;;16.05;12.07;;;;;;;;;;5113185;28;20226;-80
2020/12/12 09:25:54;;;;;;;17.27;12.48;;;;;;;;;;5113795;28;20209;-80
2020/12/12 09:28:22;;;;;;;17.33;12.00;;;;;;;;;;5114106;28;20199;-81
2020/12/12 09:30:49;;;;;;;15.93;12.68;;;;;;;;;;5114805;28;20648;-80
2020/12/12 09:33:15;;;;;;;19.27;12.80;;;;;;;;;;5116001;28;20284;-83
2020/12/12 09:35:42;;;;;;;19.58;13.00;;;;;;;;;;5116331;28;20222;-78
2020/12/12 09:38:09;;;;;;;16.98;11.75;;;;;;;;;;5116248;28;20199;-81
2020/12/12 09:40:36;;;;;;;16.65;12.70;;;;;;;;;;5118453;27;20204;-79
2020/12/12 09:43:03;;;;;;;19.95;11.65;;;;;;;;;;5118913;27;20188;-83
2020/12/12 09:45:30;;;;;;;17.55;12.23;;;;;;;;;;5113087;28;20211;-81
2020/12/12 09:47:57;;;;;;;17.05;12.02;;;;;;;;;;5113358;28;20224;-80
2020/12/12 09:50:33;;;;;;;15.70;11.02;;;;;;;;;;5114085;28;20280;-79
2020/12/12 09:53:00;;;;;;;16.00;11.90;;;;;;;;;;5114638;28;20253;-84
2020/12/12 09:55:27;;;;;;;21.75;12.80;;;;;;;;;;5115942;28;20217;-77
2020/12/12 09:57:54;;;;;;;18.02;12.00;;;;;;;;;;5115619;28;20203;-79
2020/12/12 10:00:20;;;;;;;18.77;13.43;;;;;;;;;;5115571;28;20284;-80
2020/12/12 10:02:48;;;;;;;21.25;13.57;;;;;;;;;;5118707;27;20928;-78
2020/12/12 10:05:15;;;;;;;18.20;12.77;;;;;;;;;;5122775;27;20583;-77
2020/12/12 10:07:42;;;;;;;15.23;11.50;;;;;;;;;;5133498;27;20633;-78
2020/12/12 10:10:08;;;;;;;18.05;12.23;;;;;;;;;;5133589;27;20287;-78
2020/12/12 10:12:35;;;;;;;19.35;12.48;;;;;;;;;;5133777;27;20279;-77
2020/12/12 10:15:02;;;;;;;16.05;11.52;;;;;;;;;;5120346;27;20219;-78
2020/12/12 10:17:29;;;;;;;19.42;13.38;;;;;;;;;;5116307;28;20234;-77
2020/12/12 10:19:57;;;;;;;17.52;12.52;;;;;;;;;;5115771;28;20204;-78
2020/12/12 10:22:23;;;;;;;19.13;12.48;;;;;;;;;;5115591;28;20244;-78
2020/12/12 10:24:51;;;;;;;19.75;13.35;;;;;;;;;;5116566;27;20764;-77
2020/12/12 10:27:18;;;;;;;19.38;12.38;;;;;;;;;;5122311;27;20745;-78
2020/12/12 10:29:45;;;;;;;18.45;13.00;;;;;;;;;;5132280;27;20303;-77
2020/12/12 10:32:12;;;;;;;17.67;12.75;;;;;;;;;;5137517;27;20298;-78
2020/12/12 10:34:38;;;;;;;18.08;12.77;;;;;;;;;;5134081;27;20569;-77
2020/12/12 10:37:06;;;;;;;19.75;13.10;;;;;;;;;;5120189;27;20807;-77
2020/12/12 10:39:35;;;;;;;18.45;12.90;;;;;;;;;;5114906;28;20663;-79
2020/12/12 10:42:02;;;;;;;15.38;11.50;;;;;;;;;;5114792;28;20194;-78
2020/12/12 10:44:29;;;;;;;18.52;13.18;;;;;;;;;;5114860;28;20279;-78
2020/12/12 10:46:56;;;;;;;18.95;12.75;;;;;;;;;;5117495;27;20674;-78
2020/12/12 10:49:22;;;;;;;16.85;12.18;;;;;;;;;;5117315;27;20276;-77
2020/12/12 10:51:54;;;;;;;18.38;12.80;;;;;;;;;;5112021;28;20204;-77
2020/12/12 10:54:25;;;;;;;17.55;12.10;;;;;;;;;;5112145;28;20196;-80
2020/12/12 10:56:52;;;;;;;18.05;11.98;;;;;;;;;;5112456;28;20660;-80
2020/12/12 10:59:19;;;;;;;17.95;12.88;;;;;;;;;;5113492;28;20646;-80
2020/12/12 11:01:46;;;;;;;17.10;12.85;;;;;;;;;;5113360;28;20205;-80
2020/12/12 11:04:13;;;;;;;17.52;12.45;;;;;;;;;;5114969;28;20680;-78
2020/12/12 11:06:41;;;;;;;17.60;12.73;;;;;;;;;;5114514;28;20225;-78
2020/12/12 11:09:08;;;;;;;16.90;11.68;;;;;;;;;;5117506;27;20202;-80
2020/12/12 11:11:39;;;;;;;16.65;11.80;;;;;;;;;;5115958;27;20192;-80
2020/12/12 11:14:06;;;;;;;16.30;13.07;;;;;;;;;;5112251;28;20206;-78
2020/12/12 11:16:33;;;;;;;16.02;12.18;;;;;;;;;;5111913;28;20308;-79
2020/12/12 11:19:00;;;;;;;18.70;12.52;;;;;;;;;;5112100;28;20276;-79
2020/12/12 11:21:27;;;;;;;18.08;11.90;;;;;;;;;;5113132;28;20200;-77
2020/12/12 11:23:53;;;;;;;19.33;13.38;;;;;;;;;;5113992;28;20231;-78
2020/12/12 11:26:20;;;;;;;17.00;12.90;;;;;;;;;;5114323;28;20223;-79
2020/12/12 11:28:48;;;;;;;18.38;13.50;;;;;;;;;;5114621;28;20290;-78
2020/12/12 11:31:16;;;;;;;18.63;13.50;;;;;;;;;;5116968;28;20693;-78
2020/12/12 11:33:44;;;;;;;19.77;13.60;;;;;;;;;;5122126;28;20524;-78
2020/12/12 11:36:22;;;;;;;17.40;12.13;;;;;;;;;;5131948;27;20224;-78
2020/12/12 11:38:53;;;;;;;18.25;12.05;;;;;;;;;;5132464;27;20195;-78
2020/12/12 11:41:39;;;;;;;20.60;13.73;;;;;;;;;;5132362;27;20620;-78
2020/12/12 11:44:24;;;;;;;19.55;12.20;;;;;;;;;;5093649;28;20229;-78
2020/12/12 11:46:51;;;;;;;18.48;12.38;;;;;;;;;;5093310;28;20235;-77
2020/12/12 11:49:19;;;;;;;18.05;13.18;;;;;;;;;;5092363;28;20225;-78
2020/12/12 11:51:46;;;;;;;20.60;13.77;;;;;;;;;;5097560;28;20235;-78
2020/12/12 11:54:13;;;;;;;21.38;13.85;;;;;;;;;;5117553;27;20435;-78
2020/12/12 11:56:40;;;;;;;18.33;13.47;;;;;;;;;;5124024;28;20205;-77
2020/12/12 11:59:10;;;;;;;18.58;12.77;;;;;;;;;;5128141;27;20455;-78
2020/12/12 12:01:37;;;;;;;19.73;13.80;;;;;;;;;;5128590;27;20199;-77
2020/12/12 12:04:04;;;;;;;20.65;14.68;;;;;;;;;;5124564;27;20680;-78
2020/12/12 12:06:31;;;;;;;17.17;12.73;;;;;;;;;;5113138;28;20250;-78
2020/12/12 12:09:13;;;;;;;18.47;12.70;;;;;;;;;;5111345;28;20428;-76
2020/12/12 12:11:40;;;;;;;18.75;13.05;;;;;;;;;;5107972;28;20441;-77
2020/12/12 12:14:09;;;;;;;22.85;14.20;;;;;;;;;;5107961;28;20206;-76
2020/12/12 12:16:36;;;;;;;17.55;12.65;;;;;;;;;;5107194;28;20290;-77
2020/12/12 12:19:04;;;;;;;19.08;13.13;;;;;;;;;;5107489;28;20315;-76
2020/12/12 12:21:30;;;;;;;18.50;12.90;;;;;;;;;;5109840;28;20192;-78
2020/12/12 12:23:57;;;;;;;16.20;11.65;;;;;;;;;;5109581;28;20477;-78
2020/12/12 12:26:24;;;;;;;17.43;11.73;;;;;;;;;;5109357;28;20624;-80
2020/12/12 12:28:51;;;;;;;16.75;12.23;;;;;;;;;;5113651;28;20429;-80
2020/12/12 12:31:22;;;;;;;16.60;12.27;;;;;;;;;;5110156;28;20188;-77
2020/12/12 12:33:48;;;;;;;17.90;12.40;;;;;;;;;;5107982;28;20282;-78
2020/12/12 12:36:16;;;;;;;19.73;13.17;;;;;;;;;;5107542;28;20462;-78
2020/12/12 12:38:43;;;;;;;18.03;12.30;;;;;;;;;;5107537;28;20452;-80
2020/12/12 12:41:10;;;;;;;19.65;12.88;;;;;;;;;;5108774;28;20815;-77
2020/12/12 12:43:37;;;;;;;17.40;13.47;;;;;;;;;;5109409;28;20205;-78
2020/12/12 12:46:03;;;;;;;18.70;12.47;;;;;;;;;;5109572;28;20457;-80
2020/12/12 12:48:31;;;;;;;17.77;12.63;;;;;;;;;;5112310;28;20492;-79
2020/12/12 12:50:58;;;;;;;16.97;12.30;;;;;;;;;;5116789;27;20193;-79
2020/12/12 12:53:24;;;;;;;17.40;12.47;;;;;;;;;;5123342;27;20441;-77
2020/12/12 12:55:51;;;;;;;17.40;12.53;;;;;;;;;;5131454;27;20462;-80
2020/12/12 12:58:18;;;;;;;17.13;12.60;;;;;;;;;;5133282;27;20959;-77
2020/12/12 13:00:45;;;;;;;19.33;13.17;;;;;;;;;;5133591;27;20532;-77
2020/12/12 13:03:12;;;;;;;15.73;12.50;;;;;;;;;;5117281;27;20479;-76
2020/12/12 13:05:41;;;;;;;17.47;12.20;;;;;;;;;;5116618;27;20584;-76
2020/12/12 13:08:08;;;;;;;16.87;11.70;;;;;;;;;;5117239;28;20974;-76
2020/12/12 13:10:35;;;;;;;18.80;13.27;;;;;;;;;;5116778;28;20534;-78
2020/12/12 13:13:02;;;;;;;21.23;13.65;;;;;;;;;;5120380;27;20201;-77
2020/12/12 13:15:29;;;;;;;16.70;12.45;;;;;;;;;;5126570;27;20217;-77
2020/12/12 13:17:58;;;;;;;20.33;14.10;;;;;;;;;;5134921;27;20237;-77
2020/12/12 13:20:30;;;;;;;16.73;12.87;;;;;;;;;;5133354;27;20529;-76
2020/12/12 13:22:57;;;;;;;20.48;12.73;;;;;;;;;;5134668;27;20440;-77
2020/12/12 13:25:24;;;;;;;20.20;13.73;;;;;;;;;;5115760;27;20832;-78
2020/12/12 13:28:35;;;;;;;17.67;12.20;;;;;;;;;;5116391;27;20531;-78
2020/12/12 13:31:02;;;;;;;17.05;11.98;;;;;;;;;;5115205;28;20497;-77
2020/12/12 13:33:24;;;;;;;17.10;12.60;;;;;;;;;;5116228;27;20200;-78
2020/12/12 13:35:50;;;;;;;15.80;12.43;;;;;;;;;;5119744;27;20779;-77
2020/12/12 13:38:18;;;;;;;18.07;12.23;;;;;;;;;;5131093;27;20527;-76
2020/12/12 13:40:45;;;;;;;19.90;12.73;;;;;;;;;;5134215;27;20911;-76
2020/12/12 13:43:12;;;;;;;17.30;12.87;;;;;;;;;;5134321;27;20940;-77
2020/12/12 13:45:39;;;;;;;17.87;12.37;;;;;;;;;;5129019;27;20472;-78
2020/12/12 13:48:05;;;;;;;16.87;13.10;;;;;;;;;;5115962;28;20491;-76
2020/12/12 13:50:32;;;;;;;17.10;12.37;;;;;;;;;;5115927;28;20452;-77
2020/12/12 13:52:59;;;;;;;19.70;13.53;;;;;;;;;;5115735;28;20531;-82
2020/12/12 13:55:27;;;;;;;19.83;13.43;;;;;;;;;;5116913;27;20459;-78
2020/12/12 13:57:53;;;;;;;15.43;10.87;;;;;;;;;;5119083;27;20520;-76
2020/12/12 14:00:20;;;;;;;19.87;13.50;;;;;;;;;;5130566;27;20532;-78
2020/12/12 14:02:47;;;;;;;17.53;12.00;;;;;;;;;;5133970;27;20467;-78
2020/12/12 14:05:14;;;;;;;18.13;12.43;;;;;;;;;;5133871;27;20463;-78
2020/12/12 14:07:43;;;;;;;17.20;12.13;;;;;;;;;;5128822;27;20477;-78
2020/12/12 14:10:22;;;;;;;17.90;12.90;;;;;;;;;;5115789;28;20446;-76
2020/12/12 14:23:35;;;;;;;17.03;12.70;;;;;;;;;;5113074;27;20464;-77
2020/12/12 14:28:47;;;;;;;18.00;13.20;;;;;;;;;;5112411;28;20827;-78
2020/12/12 14:31:14;;;;;;;15.57;11.65;;;;;;;;;;5109469;27;20512;-77
2020/12/12 14:33:41;;;;;;;16.97;12.27;;;;;;;;;;5118936;27;20277;-78
2020/12/12 14:36:10;;;;;;;16.87;12.10;;;;;;;;;;5112038;28;20493;-78
2020/12/12 14:38:42;;;;;;;19.50;11.90;;;;;;;;;;5112761;28;20471;-77